Time;durP1;ratioP1;P1;durP2;ratioP2;P2;SDS_P1;SDS_P2;PMS_P1;PMS_P2;Temp;Humidity;BMP_temperature;BMP_pressure;BME280_temperature;BME280_humidity;BME280_pressure;Samples;Min_cycle;Max_cycle;Signal;HPM_P1;HPM_P2
2023/04/19 00:01:29;;;;;;;0.90;0.90;;;;;;;9.45;100.00;97911.47;1713012;75;677375;-76
2023/04/19 00:04:02;;;;;;;0.95;0.85;;;;;;;9.46;100.00;97901.31;1704643;75;734867;-74
2023/04/19 00:06:33;;;;;;;1.65;0.95;;;;;;;9.34;100.00;97903.03;1698160;75;1956472;-74
2023/04/19 00:09:03;;;;;;;3.65;2.65;;;;;;;9.22;100.00;97893.06;1704035;75;748206;-74
2023/04/19 00:11:36;;;;;;;3.85;2.65;;;;;;;9.38;100.00;97887.25;1687955;75;2750877;-77
2023/04/19 00:14:06;;;;;;;5.05;2.30;;;;;;;9.50;100.00;97882.75;1690181;75;1863546;-75
2023/04/19 00:16:36;;;;;;;3.40;2.50;;;;;;;9.45;100.00;97873.22;1712651;75;679992;-76
2023/04/19 00:19:09;;;;;;;3.05;2.75;;;;;;;9.49;100.00;97873.81;1703525;75;758156;-74
2023/04/19 00:21:39;;;;;;;3.30;2.80;;;;;;;9.52;100.00;97864.69;1698023;75;1920236;-76
2023/04/19 00:24:10;;;;;;;4.20;2.35;;;;;;;9.62;100.00;97857.22;1619696;75;7749288;-74
2023/04/19 00:26:43;;;;;;;3.60;1.90;;;;;;;9.70;100.00;97857.63;1712505;75;674530;-76
2023/04/19 00:29:13;;;;;;;1.90;1.60;;;;;;;9.76;100.00;97851.03;1689542;75;1897798;-75
2023/04/19 00:31:43;;;;;;;1.70;1.60;;;;;;;9.63;100.00;97845.06;1710598;75;840774;-75
2023/04/19 00:34:13;;;;;;;4.00;2.40;;;;;;;9.61;100.00;97842.03;1689930;75;1867428;-74
2023/04/19 00:36:43;;;;;;;2.25;1.90;;;;;;;9.59;100.00;97845.22;1601602;75;10020346;-72
2023/04/19 00:39:14;;;;;;;2.35;2.15;;;;;;;9.46;100.00;97843.94;1703747;75;749217;-74
2023/04/19 00:41:47;;;;;;;3.30;2.90;;;;;;;9.44;100.00;97847.13;1699687;75;1775210;-74
2023/04/19 00:44:18;;;;;;;3.00;2.40;;;;;;;9.43;100.00;97844.84;1703953;75;757876;-74
2023/04/19 00:46:50;;;;;;;3.10;2.80;;;;;;;9.48;100.00;97836.78;1712637;75;675214;-74
2023/04/19 00:49:22;;;;;;;3.70;3.00;;;;;;;9.48;100.00;97834.06;1701199;75;930454;-76
2023/04/19 00:51:53;;;;;;;2.85;2.35;;;;;;;9.50;100.00;97830.84;1676191;75;3728358;-75
2023/04/19 00:54:24;;;;;;;2.30;2.10;;;;;;;9.52;100.00;97831.88;1692081;75;1694146;-75
2023/04/19 00:56:57;;;;;;;3.50;2.70;;;;;;;9.54;100.00;97831.44;1711515;75;810347;-77
2023/04/19 00:59:28;;;;;;;2.90;2.40;;;;;;;9.53;100.00;97829.94;1703116;75;750133;-76
2023/04/19 01:01:59;;;;;;;3.20;2.30;;;;;;;9.56;100.00;97831.72;1615088;75;8895382;-75
2023/04/19 01:04:29;;;;;;;3.15;2.55;;;;;;;9.59;100.00;97836.25;1690640;75;1791144;-75
2023/04/19 01:06:59;;;;;;;2.95;2.40;;;;;;;9.56;100.00;97832.47;1712382;75;677335;-74
2023/04/19 01:09:29;;;;;;;2.35;1.95;;;;;;;9.55;100.00;97830.97;1702962;75;772801;-76
2023/04/19 01:12:03;;;;;;;3.00;2.20;;;;;;;9.59;100.00;97839.00;1674770;75;3884524;-74
2023/04/19 01:14:33;;;;;;;3.20;2.40;;;;;;;9.57;100.00;97828.56;1689121;75;1926232;-76
2023/04/19 01:17:04;;;;;;;3.05;2.45;;;;;;;9.62;100.00;97827.16;1712818;75;674260;-75
2023/04/19 01:19:34;;;;;;;2.45;2.10;;;;;;;9.65;100.00;97828.94;1703960;75;751832;-73
2023/04/19 01:22:05;;;;;;;3.65;2.05;;;;;;;9.61;100.00;97828.34;1676208;75;3734239;-78
2023/04/19 01:24:38;;;;;;;4.20;2.25;;;;;;;9.55;100.00;97822.78;1702954;75;748929;-74
2023/04/19 01:27:08;;;;;;;2.40;2.10;;;;;;;9.59;100.00;97819.88;1713044;75;669223;-73
2023/04/19 01:29:38;;;;;;;2.80;2.30;;;;;;;9.55;100.00;97824.78;1618730;75;7821561;-75
2023/04/19 01:32:08;;;;;;;2.05;1.65;;;;;;;9.67;100.00;97829.25;1700305;75;1714673;-74
2023/04/19 01:34:39;;;;;;;2.15;1.85;;;;;;;9.59;100.00;97826.09;1677968;75;2845011;-74
2023/04/19 01:37:09;;;;;;;1.60;1.50;;;;;;;9.71;100.00;97818.88;1712075;75;731227;-76
2023/04/19 01:39:42;;;;;;;1.50;1.40;;;;;;;9.71;100.00;97821.59;1700840;75;954070;-75
2023/04/19 01:42:12;;;;;;;1.20;1.10;;;;;;;9.70;100.00;97817.38;1672568;75;4062257;-74
2023/04/19 01:44:42;;;;;;;1.20;1.10;;;;;;;9.73;100.00;97813.69;1701356;75;915750;-76
2023/04/19 01:47:12;;;;;;;1.40;1.25;;;;;;;9.63;100.00;97809.53;1711744;75;711904;-74
2023/04/19 01:49:42;;;;;;;1.05;0.95;;;;;;;9.60;100.00;97807.72;1689946;75;1761611;-76
2023/04/19 01:52:12;;;;;;;1.10;1.00;;;;;;;9.61;100.00;97814.69;1711405;75;679488;-73
2023/04/19 01:54:45;;;;;;;1.35;1.00;;;;;;;9.47;100.00;97818.88;1690673;75;1710880;-76
2023/04/19 01:57:17;;;;;;;1.00;0.90;;;;;;;9.49;100.00;97813.69;1711798;75;676012;-73
2023/04/19 01:59:47;;;;;;;1.05;0.95;;;;;;;9.43;100.00;97812.84;1689394;75;1799965;-74
2023/04/19 02:02:18;;;;;;;1.65;1.15;;;;;;;9.33;100.00;97801.19;1711195;75;711689;-74
2023/04/19 02:04:48;;;;;;;1.00;0.90;;;;;;;9.36;100.00;97803.00;1701073;75;837228;-73
2023/04/19 02:07:19;;;;;;;0.90;0.90;;;;;;;9.27;100.00;97802.28;1711954;75;678825;-74
2023/04/19 02:09:52;;;;;;;0.85;0.85;;;;;;;9.31;100.00;97800.91;1621102;75;7567747;-73
2023/04/19 02:12:24;;;;;;;1.10;1.00;;;;;;;9.24;100.00;97800.50;1699958;75;1751763;-73
2023/04/19 02:14:56;;;;;;;0.80;0.80;;;;;;;9.20;100.00;97797.91;1691016;75;1785211;-75
2023/04/19 02:17:26;;;;;;;1.20;1.10;;;;;;;9.08;100.00;97796.91;1709791;75;889934;-75
2023/04/19 02:19:56;;;;;;;1.15;1.00;;;;;;;9.05;100.00;97797.84;1701933;75;845092;-74
2023/04/19 02:22:27;;;;;;;2.95;1.15;;;;;;;9.02;100.00;97798.78;1699424;75;1813162;-74
2023/04/19 02:24:59;;;;;;;1.00;0.90;;;;;;;9.04;100.00;97795.56;1701159;75;908677;-74
2023/04/19 02:27:30;;;;;;;1.30;1.10;;;;;;;8.82;100.00;97784.88;1709549;75;947930;-73
2023/04/19 02:30:00;;;;;;;1.80;1.50;;;;;;;8.78;100.00;97784.28;1631403;75;6768046;-75
2023/04/19 02:32:31;;;;;;;1.60;1.20;;;;;;;8.76;100.00;97781.28;1675503;75;3773156;-73
2023/04/19 02:35:01;;;;;;;1.10;1.00;;;;;;;8.74;100.00;97785.19;1702478;75;798347;-76
2023/04/19 02:37:31;;;;;;;2.15;1.10;;;;;;;8.60;100.00;97779.63;1712882;75;674232;-75
2023/04/19 02:40:05;;;;;;;1.20;1.10;;;;;;;8.63;100.00;97774.00;1703254;75;764209;-74
2023/04/19 02:42:35;;;;;;;1.20;1.10;;;;;;;8.59;100.00;97783.59;1712850;75;670809;-78
2023/04/19 02:45:09;;;;;;;1.30;0.90;;;;;;;8.64;100.00;97783.72;1702441;75;814519;-74
2023/04/19 02:47:39;;;;;;;0.80;0.80;;;;;;;8.57;100.00;97773.13;1713270;75;672301;-73
2023/04/19 02:50:11;;;;;;;1.00;0.90;;;;;;;8.58;100.00;97768.44;1642058;75;5910448;-75
2023/04/19 02:52:41;;;;;;;1.00;0.90;;;;;;;8.49;100.00;97769.19;1712563;75;732089;-74
2023/04/19 02:55:14;;;;;;;0.85;0.85;;;;;;;8.49;100.00;97761.00;1678200;75;2850224;-73
2023/04/19 02:57:44;;;;;;;0.80;0.80;;;;;;;8.46;100.00;97770.88;1686684;75;2893322;-73
2023/04/19 03:00:16;;;;;;;1.55;1.20;;;;;;;8.33;100.00;97762.09;1703433;75;749346;-74
2023/04/19 03:02:46;;;;;;;1.00;0.90;;;;;;;8.36;100.00;97763.16;1710579;75;853360;-73
2023/04/19 03:05:16;;;;;;;0.90;0.90;;;;;;;8.34;100.00;97758.13;1704001;75;743096;-75
2023/04/19 03:07:46;;;;;;;0.80;0.80;;;;;;;8.27;100.00;97753.78;1711337;75;816402;-77
2023/04/19 03:10:20;;;;;;;1.15;1.05;;;;;;;8.15;100.00;97762.13;1702402;75;810668;-77
2023/04/19 03:12:51;;;;;;;1.10;1.00;;;;;;;8.17;100.00;97756.97;1712041;75;675116;-74
2023/04/19 03:15:21;;;;;;;1.40;1.20;;;;;;;8.05;100.00;97748.47;1702316;75;802173;-73
2023/04/19 03:17:52;;;;;;;1.10;1.00;;;;;;;8.06;100.00;97738.34;1710574;75;835378;-75
2023/04/19 03:20:22;;;;;;;1.15;1.00;;;;;;;8.09;100.00;97740.16;1702322;75;773365;-73
2023/04/19 03:22:52;;;;;;;1.10;1.00;;;;;;;8.06;100.00;97733.66;1711995;75;670491;-77
2023/04/19 03:25:25;;;;;;;3.40;0.90;;;;;;;8.01;100.00;97736.22;1702377;75;761401;-72
2023/04/19 03:27:58;;;;;;;1.00;0.90;;;;;;;7.93;100.00;97733.06;1711969;75;675860;-77
2023/04/19 03:30:28;;;;;;;0.70;0.70;;;;;;;7.89;100.00;97732.47;1699765;75;982108;-77
2023/04/19 03:32:59;;;;;;;1.10;1.00;;;;;;;7.90;100.00;97726.53;1711703;75;713389;-72
2023/04/19 03:35:31;;;;;;;0.80;0.80;;;;;;;7.84;100.00;97728.38;1702558;75;747055;-73
2023/04/19 03:38:01;;;;;;;0.70;0.70;;;;;;;7.83;100.00;97717.94;1711834;75;675146;-75
2023/04/19 03:40:36;;;;;;;1.10;1.00;;;;;;;7.78;100.00;97724.75;1703182;75;744182;-76
2023/04/19 03:43:08;;;;;;;0.90;0.90;;;;;;;7.66;100.00;97715.50;1710566;75;835383;-74
2023/04/19 03:45:38;;;;;;;1.05;0.95;;;;;;;7.59;100.00;97723.97;1700286;75;866359;-74
2023/04/19 03:48:09;;;;;;;1.00;0.85;;;;;;;7.64;100.00;97723.38;1711719;75;671886;-75
2023/04/19 03:50:39;;;;;;;0.80;0.80;;;;;;;7.61;100.00;97721.56;1689682;75;1789473;-74
2023/04/19 03:53:09;;;;;;;0.80;0.80;;;;;;;7.49;100.00;97717.03;1711798;75;671845;-77
2023/04/19 03:55:42;;;;;;;0.90;0.90;;;;;;;7.43;100.00;97726.97;1700641;75;912032;-75
2023/04/19 03:58:12;;;;;;;1.00;0.90;;;;;;;7.41;100.00;97721.25;1711865;75;675933;-78
2023/04/19 04:00:42;;;;;;;1.00;0.90;;;;;;;7.35;100.00;97718.34;1688611;75;1894472;-74
2023/04/19 04:03:12;;;;;;;0.90;0.85;;;;;;;7.31;100.00;97723.22;1712855;75;675755;-75
2023/04/19 04:05:43;;;;;;;0.90;0.90;;;;;;;7.29;100.00;97724.84;1702203;75;806546;-74
2023/04/19 04:08:13;;;;;;;0.75;0.75;;;;;;;7.16;100.00;97728.47;1712270;75;675070;-75
2023/04/19 04:10:46;;;;;;;2.00;1.15;;;;;;;7.12;100.00;97724.38;1703199;75;756466;-76
2023/04/19 04:13:16;;;;;;;1.30;1.20;;;;;;;7.13;100.00;97729.38;1712009;75;680794;-73
2023/04/19 04:15:46;;;;;;;1.60;1.00;;;;;;;7.09;100.00;97717.09;1700734;75;895547;-72
2023/04/19 04:18:17;;;;;;;1.50;1.35;;;;;;;7.01;100.00;97719.38;1711719;75;766158;-72
2023/04/19 04:20:47;;;;;;;1.90;1.70;;;;;;;7.06;100.00;97721.47;1703510;75;748472;-71
2023/04/19 04:23:20;;;;;;;2.10;1.85;;;;;;;7.06;100.00;97720.75;1712232;75;676495;-71
2023/04/19 04:26:01;;;;;;;1.60;1.40;;;;;;;7.03;100.00;97722.41;1700798;75;942160;-74
2023/04/19 04:28:32;;;;;;;1.65;1.50;;;;;;;6.97;100.00;97727.66;1704164;75;676349;-74
2023/04/19 04:31:02;;;;;;;2.20;1.65;;;;;;;6.96;100.00;97733.56;1711800;75;676296;-75
2023/04/19 04:33:35;;;;;;;4.90;3.60;;;;;;;6.90;100.00;97727.19;1704484;75;690066;-74
2023/04/19 04:36:06;;;;;;;3.70;3.10;;;;;;;6.89;100.00;97729.16;1674396;75;3887065;-73
2023/04/19 04:38:36;;;;;;;3.75;2.60;;;;;;;6.87;100.00;97723.41;1704393;75;678348;-72
2023/04/19 04:41:09;;;;;;;2.35;2.00;;;;;;;6.86;100.00;97732.78;1711852;75;676437;-75
2023/04/19 04:43:39;;;;;;;2.40;2.00;;;;;;;6.82;100.00;97732.91;1700958;75;968245;-73
2023/04/19 04:46:09;;;;;;;2.20;1.90;;;;;;;6.85;100.00;97735.94;1712257;75;697168;-75
2023/04/19 04:48:40;;;;;;;2.80;1.70;;;;;;;6.90;100.00;97732.63;1704571;75;677995;-74
2023/04/19 04:51:10;;;;;;;1.70;1.60;;;;;;;6.87;100.00;97734.28;1709588;75;942318;-72
2023/04/19 04:53:40;;;;;;;1.50;1.40;;;;;;;6.85;100.00;97742.13;1703546;75;744901;-73
2023/04/19 04:56:13;;;;;;;1.45;1.35;;;;;;;6.90;100.00;97735.34;1712276;75;679201;-75
2023/04/19 04:58:43;;;;;;;1.80;1.50;;;;;;;6.92;100.00;97741.84;1677375;75;2946459;-72
2023/04/19 05:01:18;;;;;;;2.10;1.40;;;;;;;6.95;100.00;97737.47;1712665;75;687351;-73
2023/04/19 05:03:48;;;;;;;1.60;1.30;;;;;;;6.98;100.00;97731.91;1689564;75;1956287;-73
2023/04/19 05:06:18;;;;;;;1.20;1.10;;;;;;;7.03;100.00;97746.88;1701083;75;1682199;-75
2023/04/19 05:08:49;;;;;;;1.30;1.20;;;;;;;6.98;100.00;97736.59;1704495;75;701297;-75
2023/04/19 05:11:22;;;;;;;1.40;1.30;;;;;;;7.03;100.00;97730.56;1687385;75;2854636;-73
2023/04/19 05:13:52;;;;;;;1.30;1.20;;;;;;;7.12;100.00;97738.75;1701794;75;935792;-75
2023/04/19 05:16:23;;;;;;;1.25;1.10;;;;;;;7.16;100.00;97741.31;1709824;75;991078;-74
2023/04/19 05:18:53;;;;;;;2.40;1.55;;;;;;;7.10;100.00;97727.56;1678647;75;2802078;-74
2023/04/19 05:21:23;;;;;;;2.10;1.65;;;;;;;7.25;100.00;97727.72;1698467;75;1914428;-72
2023/04/19 05:23:55;;;;;;;2.10;1.70;;;;;;;7.33;100.00;97725.47;1643913;75;5768769;-73
2023/04/19 05:26:27;;;;;;;3.45;1.50;;;;;;;7.41;100.00;97727.47;1697582;75;1942844;-74
2023/04/19 05:28:58;;;;;;;3.25;1.80;;;;;;;7.43;100.00;97730.50;1691044;75;1784292;-73
2023/04/19 05:31:32;;;;;;;1.85;1.65;;;;;;;7.56;100.00;97730.34;1698523;75;1831817;-72
2023/04/19 05:34:02;;;;;;;1.90;1.70;;;;;;;7.64;100.00;97725.34;1688727;75;1811399;-73
2023/04/19 05:36:33;;;;;;;3.65;2.80;;;;;;;7.58;100.00;97727.94;1712400;75;690551;-75
2023/04/19 05:39:03;;;;;;;2.50;2.30;;;;;;;7.71;100.00;97729.75;1703363;75;758428;-77
2023/04/19 05:41:36;;;;;;;1.90;1.75;;;;;;;7.86;100.00;97725.19;1712092;75;712310;-72
2023/04/19 05:44:07;;;;;;;1.70;1.50;;;;;;;8.03;100.00;97712.75;1703965;75;742434;-71
2023/04/19 05:46:37;;;;;;;3.10;2.10;;;;;;;8.03;100.00;97722.91;1712585;75;669081;-74
2023/04/19 05:49:07;;;;;;;2.60;2.05;;;;;;;8.16;100.00;97723.50;1703754;75;740499;-73
2023/04/19 05:51:38;;;;;;;2.90;2.40;;;;;;;8.25;100.00;97723.47;1712155;75;682874;-73
2023/04/19 05:54:11;;;;;;;2.45;2.25;;;;;;;8.40;100.00;97717.41;1703687;75;746607;-75
2023/04/19 05:56:44;;;;;;;3.55;2.70;;;;;;;8.50;100.00;97718.88;1712146;75;681625;-73
2023/04/19 05:59:14;;;;;;;2.25;2.05;;;;;;;8.74;100.00;97716.97;1703438;75;744991;-72
2023/04/19 06:01:44;;;;;;;2.95;2.35;;;;;;;8.86;100.00;97714.50;1711970;75;699405;-75
2023/04/19 06:04:14;;;;;;;3.25;2.75;;;;;;;9.00;100.00;97713.06;1703418;75;744248;-72
2023/04/19 06:06:47;;;;;;;3.90;2.20;;;;;;;9.24;100.00;97710.34;1712895;75;675371;-75
2023/04/19 06:09:17;;;;;;;3.60;2.65;;;;;;;9.41;100.00;97705.22;1702877;75;724986;-72
2023/04/19 06:11:50;;;;;;;3.90;3.00;;;;;;;9.53;100.00;97707.72;1686224;75;2809506;-75
2023/04/19 06:14:20;;;;;;;3.80;3.00;;;;;;;9.67;100.00;97700.00;1687280;75;1978589;-73
2023/04/19 06:16:51;;;;;;;2.60;2.40;;;;;;;9.87;100.00;97704.84;1711760;75;710274;-76
2023/04/19 06:19:21;;;;;;;2.35;2.15;;;;;;;10.05;100.00;97695.72;1690454;75;1792084;-72
2023/04/19 06:21:51;;;;;;;4.10;3.50;;;;;;;10.09;100.00;97699.78;1712262;75;674935;-72
2023/04/19 06:24:22;;;;;;;3.45;3.15;;;;;;;10.34;100.00;97692.25;1703270;75;771026;-72
2023/04/19 06:26:54;;;;;;;4.80;2.80;;;;;;;10.43;100.00;97697.63;1710367;75;824552;-74
2023/04/19 06:29:25;;;;;;;4.90;3.75;;;;;;;10.53;100.00;97695.53;1702729;75;757209;-73
2023/04/19 06:31:55;;;;;;;5.80;3.30;;;;;;;10.71;100.00;97703.53;1698481;75;1838167;-73
2023/04/19 06:34:25;;;;;;;2.90;2.20;;;;;;;10.91;100.00;97693.84;1677592;75;2880918;-73
2023/04/19 06:36:57;;;;;;;2.40;2.00;;;;;;;10.97;100.00;97689.22;1698458;75;1823946;-74
2023/04/19 06:39:27;;;;;;;2.90;2.30;;;;;;;11.12;100.00;97691.91;1701889;75;809550;-73
2023/04/19 06:42:01;;;;;;;3.10;2.40;;;;;;;11.13;100.00;97687.91;1710311;75;838269;-73
2023/04/19 06:44:31;;;;;;;3.90;2.30;;;;;;;11.27;100.00;97689.84;1702695;75;743611;-71
2023/04/19 06:47:02;;;;;;;4.10;2.90;;;;;;;11.39;100.00;97685.25;1711614;75;684913;-74
2023/04/19 06:49:34;;;;;;;3.95;3.25;;;;;;;11.44;97.98;97681.81;1690276;75;1740324;-74
2023/04/19 06:52:05;;;;;;;5.70;4.50;;;;;;;11.47;90.75;97683.59;1688376;75;2699546;-73
2023/04/19 06:54:35;;;;;;;6.75;5.30;;;;;;;11.45;81.30;97678.63;1703519;75;767019;-72
2023/04/19 06:57:08;;;;;;;8.00;4.90;;;;;;;11.57;80.57;97682.25;1709389;75;943704;-75
2023/04/19 06:59:38;;;;;;;6.70;4.15;;;;;;;11.56;77.43;97677.22;1632567;75;6648308;-73
2023/04/19 07:02:09;;;;;;;6.60;4.70;;;;;;;11.69;74.49;97674.91;1712744;75;677347;-72
2023/04/19 07:04:39;;;;;;;4.80;4.30;;;;;;;11.83;74.18;97676.75;1704656;75;737951;-72
2023/04/19 07:07:09;;;;;;;5.85;4.50;;;;;;;11.83;72.54;97668.53;1687974;75;2802518;-74
2023/04/19 07:09:39;;;;;;;6.10;4.25;;;;;;;11.85;71.27;97673.53;1547943;67;13874226;-72
2023/04/19 07:12:12;;;;;;;5.40;3.70;;;;;;;12.05;72.58;97670.78;1687549;75;2838973;-73
2023/04/19 07:14:43;;;;;;;5.95;4.10;;;;;;;12.08;70.78;97664.31;1703694;75;740709;-72
2023/04/19 07:17:13;;;;;;;7.25;4.75;;;;;;;12.05;68.61;97670.00;1710947;75;689851;-73
2023/04/19 07:19:43;;;;;;;9.90;4.65;;;;;;;12.18;68.97;97667.66;1702014;75;763835;-74
2023/04/19 07:22:13;;;;;;;7.25;4.95;;;;;;;12.28;67.19;97665.47;1710875;75;760065;-75
2023/04/19 07:24:43;;;;;;;6.85;4.55;;;;;;;12.38;67.16;97664.06;1702017;75;756059;-73
2023/04/19 07:27:17;;;;;;;5.00;4.15;;;;;;;12.52;67.28;97657.66;1711485;75;693023;-73
2023/04/19 07:29:47;;;;;;;5.45;4.35;;;;;;;12.55;68.31;97655.94;1703332;75;735511;-74
